createdAt,value
2019-04-28T19:40:08.999Z,31.93
2019-04-28T19:40:45.351Z,32.30
2019-04-28T19:41:21.573Z,30.25
2019-04-28T19:41:57.725Z,32.53
2019-04-28T19:42:33.766Z,30.72
2019-04-28T19:43:09.827Z,31.00
2019-04-28T19:43:45.861Z,25.40
2019-04-28T19:44:21.903Z,36.42
2019-04-28T19:44:57.921Z,26.97
2019-04-28T19:45:35.400Z,28.45
2019-04-28T19:46:13.075Z,30.08
2019-04-28T19:46:49.205Z,28.67
2019-04-28T19:47:25.269Z,28.02
2019-04-28T19:48:01.316Z,32.60
2019-04-28T19:48:38.520Z,29.18
2019-04-28T19:49:14.672Z,27.93
2019-04-28T19:49:50.711Z,27.32
2019-04-28T19:50:26.811Z,30.97
2019-04-28T19:51:02.959Z,30.48
2019-04-28T19:51:39.077Z,23.92
2019-04-28T19:52:15.103Z,34.70
2019-04-28T19:52:51.239Z,28.50
2019-04-28T19:53:27.590Z,27.30
2019-04-28T19:54:03.934Z,30.25
2019-04-28T19:54:41.631Z,35.03
2019-04-28T19:55:19.309Z,35.35
2019-04-28T19:56:05.960Z,36.85
2019-04-28T19:56:43.721Z,33.60
2019-04-28T19:57:27.511Z,36.68
2019-04-28T19:58:10.901Z,34.18
2019-04-28T19:58:48.665Z,29.65
2019-04-28T19:59:32.393Z,33.08
2019-04-28T20:00:13.842Z,36.30
2019-04-28T20:00:59.067Z,38.67
2019-04-28T20:01:35.222Z,35.48
2019-04-28T20:02:11.474Z,35.48
2019-04-28T20:02:47.742Z,31.23
2019-04-28T20:03:23.859Z,33.28
2019-04-28T20:03:59.881Z,35.30
2019-04-28T20:04:35.894Z,31.60
2019-04-28T20:05:11.940Z,30.92
2019-04-28T20:05:48.148Z,33.05
2019-04-28T20:06:24.296Z,29.90
2019-04-28T20:07:02.457Z,31.82
2019-04-28T20:07:40.959Z,28.17
2019-04-28T20:08:16.388Z,37.73
2019-04-28T20:08:52.551Z,33.02
2019-04-28T20:09:28.580Z,32.00
2019-04-28T20:10:06.139Z,26.10
2019-04-28T20:10:43.779Z,29.63
2019-04-28T20:11:20.121Z,30.88
2019-04-28T20:11:56.166Z,33.65
2019-04-28T20:12:32.262Z,30.50
2019-04-28T20:13:08.301Z,30.32
2019-04-28T20:13:44.440Z,24.25
2019-04-28T20:14:20.561Z,25.68
2019-04-28T20:14:56.911Z,24.67
2019-04-28T20:15:33.537Z,24.43
2019-04-28T20:16:09.639Z,29.15
2019-04-28T20:16:45.756Z,28.52
2019-04-28T20:17:21.787Z,22.77
2019-04-28T20:17:57.913Z,22.85
2019-04-28T20:18:34.103Z,23.27
2019-04-28T20:19:10.660Z,25.77
2019-04-28T20:19:47.011Z,21.85
2019-04-28T20:20:23.231Z,27.93
2019-04-28T20:20:59.316Z,21.23
2019-04-28T20:21:35.524Z,23.98
2019-04-28T20:22:11.645Z,21.57
2019-04-28T20:22:47.768Z,23.15
2019-04-28T20:23:23.999Z,29.15
2019-04-28T20:24:00.549Z,22.30
2019-04-28T20:24:46.988Z,20.35
2019-04-28T20:25:14.482Z,20.60
2019-04-28T20:25:50.785Z,19.50
2019-04-28T20:26:26.831Z,23.02
2019-04-28T20:27:02.875Z,28.25
2019-04-28T20:27:39.078Z,22.93
2019-04-28T20:28:15.350Z,23.83
2019-04-28T20:28:51.613Z,20.10
2019-04-28T20:29:27.728Z,27.37
2019-04-28T20:30:04.874Z,21.45
2019-04-28T20:30:41.474Z,21.90
2019-04-28T20:31:17.520Z,23.67
2019-04-28T20:31:53.758Z,23.12
2019-04-28T20:32:33.018Z,22.58
2019-04-28T20:33:09.130Z,25.85
2019-04-28T20:33:45.233Z,21.30
2019-04-28T20:34:21.412Z,27.13
2019-04-28T20:34:57.439Z,18.25
2019-04-28T20:35:35.110Z,20.43
2019-04-28T20:36:13.949Z,22.73
2019-04-28T20:36:52.042Z,25.97
2019-04-28T20:37:29.886Z,26.37
2019-04-28T20:38:10.673Z,22.25
2019-04-28T20:38:49.620Z,22.85
2019-04-28T20:39:27.334Z,19.45
2019-04-28T20:40:06.801Z,23.92
2019-04-28T20:40:51.269Z,21.70
2019-04-28T20:41:29.390Z,25.08
2019-04-28T20:42:23.001Z,21.80
2019-04-28T20:43:02.064Z,21.05
2019-04-28T20:43:38.379Z,22.80
2019-04-28T20:44:14.415Z,18.92
2019-04-28T20:44:50.667Z,19.40
2019-04-28T20:45:26.912Z,20.30
2019-04-28T20:46:03.251Z,18.90
2019-04-28T20:46:39.364Z,31.17
2019-04-28T20:47:15.378Z,22.40
2019-04-28T20:47:51.482Z,22.22
2019-04-28T20:48:27.549Z,19.75
2019-04-28T20:49:03.699Z,23.25
2019-04-28T20:49:40.047Z,26.73
2019-04-28T20:50:16.434Z,25.15
2019-04-28T20:50:52.650Z,19.98
2019-04-28T20:51:28.750Z,24.82
2019-04-28T20:52:04.770Z,26.70
2019-04-28T20:52:40.812Z,22.32
2019-04-28T20:53:19.345Z,20.25
2019-04-28T20:53:54.616Z,20.52
2019-04-28T20:54:30.890Z,25.72
2019-04-28T20:55:07.277Z,27.17
2019-04-28T20:55:43.486Z,23.10
2019-04-28T20:56:19.496Z,23.83
2019-04-28T20:56:55.589Z,22.48
2019-04-28T20:57:32.666Z,22.35
2019-04-28T20:58:08.979Z,26.27
2019-04-28T20:58:45.209Z,21.42
2019-04-28T20:59:22.893Z,20.57
2019-04-28T20:59:58.889Z,24.23
2019-04-28T21:00:36.097Z,25.68
2019-04-28T21:01:13.329Z,23.27
2019-04-28T21:01:49.440Z,20.12
2019-04-28T21:02:25.704Z,26.75
2019-04-28T21:03:01.821Z,24.15
2019-04-28T21:03:38.928Z,21.97
2019-04-28T21:04:14.960Z,20.25
2019-04-28T21:04:51.007Z,28.52
2019-04-28T21:05:27.053Z,22.90
2019-04-28T21:06:04.172Z,23.40
2019-04-28T21:06:40.371Z,21.77
2019-04-28T21:07:16.733Z,19.60
2019-04-28T21:07:52.786Z,23.90
2019-04-28T21:08:29.890Z,24.10
2019-04-28T21:09:09.578Z,26.57
2019-04-28T21:09:46.417Z,22.85
2019-04-28T21:10:22.471Z,24.12
2019-04-28T21:10:58.524Z,25.27
2019-04-28T21:11:34.605Z,25.60
2019-04-28T21:12:11.062Z,23.57
2019-04-28T21:12:47.213Z,22.75
2019-04-28T21:13:23.267Z,22.77
2019-04-28T21:13:59.267Z,23.40
2019-04-28T21:14:35.303Z,25.43
2019-04-28T21:15:11.551Z,23.73
2019-04-28T21:15:48.012Z,25.08
2019-04-28T21:16:24.167Z,20.37
2019-04-28T21:17:00.191Z,22.40
2019-04-28T21:17:36.306Z,24.92
2019-04-28T21:18:13.327Z,24.90
2019-04-28T21:18:49.328Z,27.65
2019-04-28T21:19:25.408Z,26.68
2019-04-28T21:20:01.649Z,25.60
2019-04-28T21:20:38.217Z,26.77
2019-04-28T21:21:14.253Z,35.92
2019-04-28T21:21:50.362Z,23.83
2019-04-28T21:22:26.452Z,22.22
2019-04-28T21:23:02.537Z,22.37
2019-04-28T21:23:38.772Z,26.82
2019-04-28T21:24:16.961Z,25.85
2019-04-28T21:24:52.740Z,26.12
2019-04-28T21:25:28.773Z,21.95
2019-04-28T21:26:04.807Z,24.25
2019-04-28T21:26:40.831Z,21.30
2019-04-28T21:27:16.965Z,22.58
2019-04-28T21:27:53.006Z,26.40
2019-04-28T21:28:29.153Z,22.40
2019-04-28T21:29:05.316Z,21.62
2019-04-28T21:29:41.357Z,24.75
2019-04-28T21:30:17.399Z,25.08
2019-04-28T21:30:54.637Z,26.25
2019-04-28T21:31:32.841Z,25.15
2019-04-28T21:32:09.338Z,26.80
2019-04-28T21:32:48.853Z,27.95
2019-04-28T21:33:25.289Z,26.17
2019-04-28T21:34:01.707Z,28.32
2019-04-28T21:34:38.109Z,24.47
2019-04-28T21:35:14.596Z,26.87
2019-04-28T21:35:50.920Z,27.95
2019-04-28T21:36:26.995Z,25.35
2019-04-28T21:37:03.095Z,26.93
2019-04-28T21:37:39.558Z,22.10
2019-04-28T21:38:15.598Z,22.80
2019-04-28T21:38:51.629Z,29.02
2019-04-28T21:39:27.741Z,24.05
2019-04-28T21:40:05.871Z,24.60
2019-04-28T21:40:42.471Z,22.50
2019-04-28T21:41:18.692Z,22.98
2019-04-28T21:41:55.661Z,22.77
2019-04-28T21:42:48.253Z,27.65
2019-04-28T21:43:28.808Z,23.65
2019-04-28T21:44:21.101Z,22.45
2019-04-28T21:44:58.816Z,23.55
2019-04-28T21:45:53.630Z,27.02
2019-04-28T21:46:31.400Z,23.65
2019-04-28T21:47:09.085Z,29.20
